createdAt,value
2023-04-01T05:53:18.991Z,100116.91
2023-04-01T06:10:30.386Z,100141.44
2023-04-01T06:19:21.632Z,100131.84
2023-04-01T06:22:30.975Z,100136.06
2023-04-01T06:25:41.842Z,100134.66
2023-04-01T06:32:08.225Z,100144.25
2023-04-01T06:34:53.329Z,100136.66
2023-04-01T06:38:07.988Z,100134.66
2023-04-01T06:40:54.393Z,100166.53
2023-04-01T06:44:13.397Z,100142.81
2023-04-01T06:49:44.244Z,100158.06
2023-04-01T06:55:34.148Z,100152.94
2023-04-01T07:27:03.517Z,100195.41
2023-04-01T07:41:50.139Z,100195.41
2023-04-01T07:44:33.620Z,100204.38
2023-04-01T07:47:40.799Z,100201.22
2023-04-01T07:50:19.879Z,100221.84
2023-04-01T08:02:38.964Z,100219.09
2023-04-01T08:08:10.153Z,100225.22
2023-04-01T08:10:48.569Z,100235.56
2023-04-01T08:13:26.777Z,100231.63
2023-04-01T08:16:31.431Z,100239.53
2023-04-01T08:22:48.550Z,100246.13
2023-04-01T08:25:46.473Z,100242.75
2023-04-01T08:30:57.544Z,100244.59
2023-04-01T08:42:50.428Z,100260.06
2023-04-01T08:45:37.591Z,100263.41
2023-04-01T08:48:47.479Z,100266.81
2023-04-01T08:51:55.038Z,100267.47
2023-04-01T08:54:45.569Z,100278.94
2023-04-01T08:57:24.069Z,100272.19
2023-04-01T09:00:14.500Z,100284.75
2023-04-01T09:02:59.489Z,100281.25
2023-04-01T09:05:41.277Z,100270.50
2023-04-01T09:08:30.060Z,100283.47
2023-04-01T09:11:30.187Z,100285.44
2023-04-01T09:14:28.037Z,100285.97
2023-04-01T09:17:36.587Z,100286.63
2023-04-01T09:20:39.735Z,100284.47
2023-04-01T09:23:35.135Z,100302.63
2023-04-01T09:26:50.960Z,100299.34
2023-04-01T09:29:32.638Z,100290.38
2023-04-01T09:32:32.369Z,100295.72
2023-04-01T09:35:10.182Z,100297.19
2023-04-01T09:37:54.040Z,100313.84
2023-04-01T09:46:20.983Z,100324.91
2023-04-01T09:49:36.230Z,100322.84
2023-04-01T09:52:26.472Z,100310.81
2023-04-01T09:55:05.298Z,100318.81
2023-04-01T09:58:13.210Z,100330.78
2023-04-01T10:00:57.801Z,100325.78
2023-04-01T10:03:58.079Z,100331.09
2023-04-01T10:07:09.509Z,100344.97
2023-04-01T10:10:22.365Z,100354.47
2023-04-01T10:13:23.200Z,100363.53
2023-04-01T10:16:31.486Z,100364.44
2023-04-01T10:19:20.597Z,100366.34
2023-04-01T10:22:38.281Z,100362.97
2023-04-01T10:26:03.001Z,100370.31
2023-04-01T10:29:06.595Z,100381.47
2023-04-01T10:32:28.554Z,100381.59
2023-04-01T10:35:44.837Z,100393.94
2023-04-01T10:38:46.552Z,100388.69
2023-04-01T10:41:49.639Z,100393.53
2023-04-01T10:44:44.330Z,100406.78
2023-04-01T10:47:49.371Z,100407.75
2023-04-01T10:50:53.947Z,100394.56
2023-04-01T10:53:48.749Z,100394.34
2023-04-01T10:56:41.051Z,100419.84
2023-04-01T10:59:47.045Z,100402.59
2023-04-01T11:02:56.430Z,100420.94
2023-04-01T11:06:12.824Z,100414.25
2023-04-01T11:09:24.758Z,100449.00
2023-04-01T11:12:33.576Z,100432.19
2023-04-01T11:15:31.740Z,100419.31
2023-04-01T11:21:16.616Z,100431.59
2023-04-01T11:24:05.753Z,100442.03
2023-04-01T11:26:54.228Z,100450.78
2023-04-01T11:33:15.881Z,100451.31
2023-04-01T11:36:17.006Z,100466.75
2023-04-01T11:39:03.159Z,100460.88
2023-04-01T11:41:41.313Z,100466.22
2023-04-01T11:47:26.662Z,100466.31
2023-04-01T12:05:58.449Z,100499.97
2023-04-01T12:09:34.066Z,100519.91
2023-04-01T12:35:57.334Z,100535.63
2023-04-01T12:38:40.725Z,100527.97
2023-04-01T12:41:21.776Z,100536.41
2023-04-01T12:44:31.835Z,100536.72
2023-04-01T12:47:43.114Z,100541.25
2023-04-01T12:50:39.730Z,100538.94
2023-04-01T12:53:36.371Z,100549.91
2023-04-01T12:56:13.801Z,100563.91
2023-04-01T12:59:21.912Z,100561.69
2023-04-01T13:02:09.612Z,100562.06
2023-04-01T13:04:59.122Z,100569.09
2023-04-01T13:07:59.395Z,100567.75
2023-04-01T13:10:40.996Z,100572.47
2023-04-01T13:13:40.442Z,100572.91
2023-04-01T13:16:17.413Z,100570.78
2023-04-01T13:18:59.928Z,100579.94
2023-04-01T13:21:50.165Z,100590.06
2023-04-01T13:24:29.691Z,100589.34
2023-04-01T13:27:13.047Z,100599.00
2023-04-01T13:29:43.636Z,100602.28
2023-04-01T13:32:33.371Z,100602.88
2023-04-01T13:35:23.379Z,100614.31
2023-04-01T13:38:08.047Z,100610.94
2023-04-01T13:40:52.355Z,100625.78
2023-04-01T13:43:34.020Z,100623.50
2023-04-01T13:46:21.697Z,100630.69
2023-04-01T13:49:14.646Z,100641.97
2023-04-01T13:52:01.980Z,100640.03
2023-04-01T13:54:52.342Z,100642.97
2023-04-01T13:57:46.026Z,100652.16
2023-04-01T14:00:55.158Z,100656.84
2023-04-01T14:03:46.483Z,100672.03
2023-04-01T14:09:46.917Z,100688.09
2023-04-01T14:12:28.408Z,100677.91
2023-04-01T14:15:12.673Z,100689.25
2023-04-01T14:17:54.761Z,100697.88
2023-04-01T14:20:31.549Z,100699.56
2023-04-01T14:23:25.712Z,100713.38
2023-04-01T14:29:02.559Z,100690.97
2023-04-01T14:31:42.386Z,100698.34
2023-04-01T14:34:27.885Z,100712.25
2023-04-01T14:37:06.619Z,100727.97
2023-04-01T14:40:08.345Z,100747.06
2023-04-01T14:43:19.345Z,100750.53
2023-04-01T14:46:25.462Z,100745.28
2023-04-01T14:48:58.522Z,100756.78
2023-04-01T14:51:35.234Z,100767.69
2023-04-01T14:54:25.457Z,100785.75
2023-04-01T14:57:07.846Z,100775.81
2023-04-01T14:59:42.264Z,100775.97
2023-04-01T15:02:26.406Z,100773.13
2023-04-01T15:05:14.759Z,100790.34
2023-04-01T15:08:07.359Z,100780.13
2023-04-01T15:11:06.900Z,100782.53
2023-04-01T15:14:17.553Z,100807.84
2023-04-01T15:17:15.615Z,100793.44
2023-04-01T15:20:02.899Z,100799.56
2023-04-01T15:23:03.356Z,100802.53
2023-04-01T15:25:44.724Z,100827.19
2023-04-01T15:28:25.867Z,100829.78
2023-04-01T15:31:01.380Z,100816.34
2023-04-01T15:33:46.207Z,100828.81
2023-04-01T15:36:30.411Z,100824.00
2023-04-01T15:39:06.192Z,100836.09
2023-04-01T15:41:43.418Z,100854.50
2023-04-01T15:44:39.405Z,100855.97
2023-04-01T15:47:39.721Z,100877.97
2023-04-01T15:50:39.981Z,100865.00
2023-04-01T15:53:37.310Z,100865.78
2023-04-01T15:56:21.116Z,100872.13
2023-04-01T15:59:03.576Z,100875.91
2023-04-01T16:01:50.053Z,100882.19
2023-04-01T16:04:48.688Z,100879.84
2023-04-01T16:07:59.826Z,100901.31
2023-04-01T16:10:56.896Z,100889.28
2023-04-01T16:13:50.950Z,100908.06
2023-04-01T16:16:32.827Z,100901.34
2023-04-01T16:19:15.107Z,100914.44
2023-04-01T16:21:51.380Z,100930.69
2023-04-01T16:24:27.171Z,100906.69
2023-04-01T16:26:59.003Z,100914.56
2023-04-01T16:29:38.406Z,100925.16
2023-04-01T16:32:20.245Z,100935.13
2023-04-01T16:35:00.513Z,100940.94
2023-04-01T16:37:42.388Z,100939.47
2023-04-01T16:40:26.506Z,100946.06
2023-04-01T16:42:58.403Z,100960.09
2023-04-01T16:45:36.532Z,100966.16
2023-04-01T16:48:13.615Z,100963.72
2023-04-01T16:50:56.304Z,100978.50
2023-04-01T16:53:38.911Z,100969.41
2023-04-01T16:56:27.688Z,100972.50
2023-04-01T16:59:05.237Z,100981.50
2023-04-01T17:01:55.028Z,100978.00
2023-04-01T17:04:35.747Z,100979.53
2023-04-01T17:07:27.038Z,100983.75
2023-04-01T17:10:39.685Z,100996.28
2023-04-01T17:17:30.647Z,101006.72
2023-04-01T17:20:10.814Z,101005.72
2023-04-01T17:23:01.000Z,101021.16
2023-04-01T17:25:51.408Z,101030.47
2023-04-01T17:28:30.030Z,101045.28
2023-04-01T17:31:08.984Z,101037.81
2023-04-01T17:33:58.452Z,101034.91
2023-04-01T17:36:42.576Z,101058.50
2023-04-01T17:39:25.261Z,101059.28
2023-04-01T17:42:02.521Z,101062.75
2023-04-01T17:44:40.195Z,101083.00
2023-04-01T17:47:30.346Z,101078.09
2023-04-01T17:50:12.343Z,101075.63
2023-04-01T17:52:44.464Z,101089.81
2023-04-01T17:55:48.846Z,101097.91
2023-04-01T17:58:22.628Z,101098.28
2023-04-01T18:01:05.077Z,101105.81
2023-04-01T18:03:55.898Z,101106.00
2023-04-01T18:06:33.577Z,101110.91
2023-04-01T18:09:07.467Z,101117.63
2023-04-01T18:11:46.944Z,101118.25
2023-04-01T18:14:39.262Z,101122.16
2023-04-01T18:17:21.308Z,101130.53
2023-04-01T18:20:14.860Z,101124.63
2023-04-01T18:22:46.653Z,101139.44
2023-04-01T18:25:24.287Z,101134.44
2023-04-01T18:27:56.043Z,101139.56
2023-04-01T18:30:31.758Z,101151.94
2023-04-01T18:33:06.152Z,101163.84
2023-04-01T18:35:49.574Z,101165.59
2023-04-01T18:38:21.352Z,101179.88
2023-04-01T18:40:53.688Z,101179.50
2023-04-01T18:43:38.902Z,101193.78
2023-04-01T18:46:19.209Z,101198.91
2023-04-01T18:48:54.705Z,101195.31
2023-04-01T18:51:28.030Z,101201.00
2023-04-01T18:54:00.775Z,101214.47
2023-04-01T18:56:32.912Z,101213.72
2023-04-01T18:59:07.806Z,101216.88
2023-04-01T19:01:43.409Z,101219.16
2023-04-01T19:04:22.614Z,101216.06
2023-04-01T19:06:53.008Z,101229.41
2023-04-01T19:09:25.654Z,101232.16
2023-04-01T19:12:33.590Z,101241.66
2023-04-01T19:15:28.066Z,101243.41
2023-04-01T19:18:25.115Z,101243.19
2023-04-01T19:20:59.380Z,101250.81
2023-04-01T19:24:08.788Z,101263.03
2023-04-01T19:26:42.073Z,101263.28
2023-04-01T19:29:27.736Z,101270.84
2023-04-01T19:32:07.548Z,101273.03
2023-04-01T19:34:47.799Z,101284.97
2023-04-01T19:37:28.663Z,101277.31
2023-04-01T19:40:06.686Z,101302.25
2023-04-01T19:42:46.485Z,101309.59
2023-04-01T19:45:28.560Z,101303.50
2023-04-01T19:48:07.038Z,101309.81
2023-04-01T19:50:41.973Z,101323.97
2023-04-01T19:53:21.439Z,101326.16
2023-04-01T19:55:55.276Z,101327.50
2023-04-01T19:58:34.753Z,101336.38
2023-04-01T20:01:06.014Z,101341.47
2023-04-01T20:03:45.745Z,101353.88
2023-04-01T20:09:53.418Z,101349.16
2023-04-01T20:12:35.169Z,101371.66
2023-04-01T20:15:06.285Z,101370.31
2023-04-01T20:17:42.456Z,101373.09
2023-04-01T20:20:22.807Z,101378.69
2023-04-01T20:23:22.954Z,101385.13
2023-04-01T20:25:57.005Z,101392.56
2023-04-01T20:28:32.816Z,101391.06
2023-04-01T20:31:26.210Z,101407.13
2023-04-01T20:34:25.485Z,101404.81
2023-04-01T20:37:03.381Z,101398.59
2023-04-01T20:39:55.126Z,101412.34
2023-04-01T20:42:56.688Z,101412.47
2023-04-01T20:45:41.199Z,101413.88
2023-04-01T20:48:31.404Z,101427.25
2023-04-01T20:51:06.440Z,101442.47
2023-04-01T20:53:42.192Z,101439.06
2023-04-01T20:56:26.806Z,101454.34
2023-04-01T20:59:02.035Z,101468.38
2023-04-01T21:01:43.443Z,101468.72
2023-04-01T21:04:25.953Z,101465.81
2023-04-01T21:07:15.857Z,101472.75
2023-04-01T21:09:58.411Z,101491.75
2023-04-01T21:12:38.381Z,101490.00
2023-04-01T21:15:34.107Z,101494.63
2023-04-01T21:18:15.601Z,101488.31
2023-04-01T21:21:13.817Z,101483.41
2023-04-01T21:24:09.256Z,101491.66
2023-04-01T21:26:54.964Z,101489.22
2023-04-01T21:29:42.607Z,101503.66
2023-04-01T21:32:25.798Z,101500.44
2023-04-01T21:35:00.212Z,101499.69
2023-04-01T21:37:54.615Z,101500.88
2023-04-01T21:40:52.553Z,101509.75
2023-04-01T21:43:38.088Z,101514.59
2023-04-01T21:46:34.082Z,101516.41
2023-04-01T21:49:17.634Z,101527.19
2023-04-01T21:52:08.522Z,101532.53
2023-04-01T21:55:22.133Z,101544.22
2023-04-01T21:58:49.889Z,101539.09
2023-04-01T22:01:40.285Z,101540.28
2023-04-01T22:04:24.795Z,101540.47
2023-04-01T22:06:59.027Z,101546.81
2023-04-01T22:09:34.276Z,101555.81
2023-04-01T22:12:10.747Z,101555.81
2023-04-01T22:14:45.940Z,101562.09
2023-04-01T22:17:24.214Z,101574.41
2023-04-01T22:20:04.268Z,101570.69
2023-04-01T22:22:52.336Z,101577.94
2023-04-01T22:25:29.593Z,101586.09
2023-04-01T22:28:05.365Z,101589.72
2023-04-01T22:30:36.850Z,101594.19
2023-04-01T22:33:12.605Z,101598.69
2023-04-01T22:35:49.132Z,101611.22
2023-04-01T22:38:32.614Z,101607.78
2023-04-01T22:41:07.597Z,101606.09
2023-04-01T22:43:40.725Z,101604.28
2023-04-01T22:46:37.116Z,101609.69
2023-04-01T22:49:12.168Z,101620.41
2023-04-01T22:51:45.893Z,101617.00
2023-04-01T22:54:22.398Z,101632.06
2023-04-01T22:56:58.157Z,101636.69
2023-04-01T22:59:34.402Z,101635.06
2023-04-01T23:02:09.026Z,101640.41
2023-04-01T23:04:44.302Z,101644.81
2023-04-01T23:07:30.740Z,101644.16
2023-04-01T23:10:00.050Z,101639.13
2023-04-01T23:12:28.882Z,101645.31
2023-04-01T23:15:01.513Z,101649.06
2023-04-01T23:17:44.916Z,101655.47
2023-04-01T23:20:33.054Z,101664.47
2023-04-01T23:23:43.373Z,101661.88
2023-04-01T23:26:15.653Z,101666.47
2023-04-01T23:28:49.795Z,101666.59
2023-04-01T23:31:29.812Z,101676.31
2023-04-01T23:33:59.697Z,101677.28
2023-04-01T23:36:29.906Z,101675.66
2023-04-01T23:39:01.265Z,101687.22
2023-04-01T23:41:33.327Z,101687.22
2023-04-01T23:44:04.900Z,101689.03
2023-04-01T23:46:36.561Z,101690.09
2023-04-01T23:49:07.537Z,101698.31
2023-04-01T23:51:42.425Z,101701.84
2023-04-01T23:54:18.829Z,101701.00
2023-04-01T23:56:51.257Z,101694.13
2023-04-01T23:59:21.266Z,101697.78
